This is the latest recevied weather packets stored in our database for station/object DB0TGO-14. If no packets are shown the sender has not sent any weather packets the latest 1 day(s).
| Time | Temp. | Humidity | Pressure | Rain* | Wind** | Luminosity | Snow |
|---|---|---|---|---|---|---|---|
| 1777955916 | 13.33° C | 91% | 1010.8 hPa | 0 mm | 0.89 m/s, 68° | - | - |
| 1777955888 | 13.33° C | 91% | 1010.8 hPa | 0 mm | 0.89 m/s, 68° | - | - |
| 1777955794 | 13.33° C | 91% | 1010.8 hPa | 0 mm | 0.89 m/s, 90° | - | - |
| 1777955695 | 13.33° C | 91% | 1010.7 hPa | 0 mm | 0.89 m/s, 68° | - | - |
| 1777955585 | 13.33° C | 91% | 1010.7 hPa | 0 mm | 0.89 m/s, 68° | - | - |
| 1777955487 | 13.33° C | 91% | 1010.8 hPa | 0 mm | 0.89 m/s, 68° | - | - |
| 1777955375 | 13.33° C | 91% | 1010.8 hPa | 0 mm | 0.89 m/s, 45° | - | - |
| 1777955273 | 13.33° C | 91% | 1010.8 hPa | 0 mm | 0.89 m/s, 45° | - | - |
| 1777955160 | 13.33° C | 91% | 1010.7 hPa | 0 mm | 0.89 m/s, 68° | - | - |
| 1777955050 | 13.33° C | 91% | 1010.9 hPa | 0 mm | 0.89 m/s, 45° | - | - |
| 1777954949 | 13.33° C | 91% | 1010.9 hPa | 0 mm | 0.89 m/s, 22° | - | - |
| 1777954936 | 13.33° C | 91% | 1010.9 hPa | 0 mm | 0.45 m/s, 22° | - | - |
| 1777954847 | 13.33° C | 91% | 1010.9 hPa | 0 mm | 0.45 m/s, 22° | - | - |
| 1777954730 | 13.89° C | 91% | 1010.8 hPa | 0 mm | 0.45 m/s, 68° | - | - |
| 1777954628 | 13.89° C | 91% | 1010.9 hPa | 0 mm | 0.45 m/s, 45° | - | - |
| 1777954519 | 13.89° C | 91% | 1010.9 hPa | 0 mm | 0 m/s | - | - |
| 1777954415 | 13.89° C | 90% | 1011 hPa | 0 mm | 0 m/s | - | - |
| 1777954310 | 13.89° C | 90% | 1011.1 hPa | 0 mm | 0 m/s | - | - |
| 1777954187 | 13.89° C | 90% | 1011.1 hPa | 0 mm | 0 m/s | - | - |
| 1777954070 | 13.89° C | 90% | 1011.1 hPa | 0 mm | 0 m/s | - | - |
| 1777953965 | 13.89° C | 90% | 1011.2 hPa | 0 mm | 0.45 m/s, 22° | - | - |
| 1777953865 | 13.89° C | 90% | 1011.1 hPa | 0 mm | 0.45 m/s, 22° | - | - |
| 1777953852 | 13.89° C | 89% | 1011.2 hPa | 0 mm | 0.45 m/s, 22° | - | - |
| 1777953764 | 13.89° C | 89% | 1011.2 hPa | 0 mm | 0.45 m/s, 22° | - | - |
| 1777953650 | 13.89° C | 89% | 1011.2 hPa | 0 mm | 0.45 m/s, 22° | - | - |
* Rain latest hour (hover to see other rain measurements)
** Current wind speed in m/s (hover to see current wind gust speed)